sensor_id;sensor_type;location;lat;lon;timestamp;pressure;altitude;pressure_sealevel;temperature;humidity
79678;BME280;69145;45.544;10.214;2023-05-20T00:00:37;100163.50;;;18.60;74.27
79678;BME280;69145;45.544;10.214;2023-05-20T00:03:20;100166.00;;;18.55;74.06
79678;BME280;69145;45.544;10.214;2023-05-20T00:06:40;100162.81;;;18.53;74.23
79678;BME280;69145;45.544;10.214;2023-05-20T00:09:26;100164.19;;;18.55;74.27
79678;BME280;69145;45.544;10.214;2023-05-20T00:14:44;100171.13;;;18.61;74.11
79678;BME280;69145;45.544;10.214;2023-05-20T00:17:12;100163.16;;;18.56;74.41
79678;BME280;69145;45.544;10.214;2023-05-20T00:19:40;100164.66;;;18.64;74.30
79678;BME280;69145;45.544;10.214;2023-05-20T00:22:05;100169.09;;;18.63;74.25
79678;BME280;69145;45.544;10.214;2023-05-20T00:24:31;100169.09;;;18.63;73.88
79678;BME280;69145;45.544;10.214;2023-05-20T00:26:56;100162.28;;;18.62;74.29
79678;BME280;69145;45.544;10.214;2023-05-20T00:29:21;100165.66;;;18.63;73.99
79678;BME280;69145;45.544;10.214;2023-05-20T00:31:47;100163.03;;;18.63;73.68
79678;BME280;69145;45.544;10.214;2023-05-20T00:34:12;100161.22;;;18.63;73.74
79678;BME280;69145;45.544;10.214;2023-05-20T00:36:38;100163.84;;;18.63;74.03
79678;BME280;69145;45.544;10.214;2023-05-20T00:39:03;100153.38;;;18.63;73.90
79678;BME280;69145;45.544;10.214;2023-05-20T00:41:28;100153.13;;;18.65;74.45
79678;BME280;69145;45.544;10.214;2023-05-20T00:43:55;100149.50;;;18.66;73.94
79678;BME280;69145;45.544;10.214;2023-05-20T00:46:25;100153.38;;;18.63;73.86
79678;BME280;69145;45.544;10.214;2023-05-20T00:48:50;100154.19;;;18.64;73.68
79678;BME280;69145;45.544;10.214;2023-05-20T00:51:17;100151.78;;;18.62;74.02
79678;BME280;69145;45.544;10.214;2023-05-20T00:53:43;100153.38;;;18.63;73.88
79678;BME280;69145;45.544;10.214;2023-05-20T00:56:08;100152.56;;;18.63;73.90
79678;BME280;69145;45.544;10.214;2023-05-20T00:58:34;100145.50;;;18.63;73.84
79678;BME280;69145;45.544;10.214;2023-05-20T01:01:03;100144.94;;;18.61;73.90
79678;BME280;69145;45.544;10.214;2023-05-20T01:03:28;100153.59;;;18.62;74.02
79678;BME280;69145;45.544;10.214;2023-05-20T01:05:54;100142.31;;;18.61;74.04
79678;BME280;69145;45.544;10.214;2023-05-20T01:08:24;100150.19;;;18.61;73.84
79678;BME280;69145;45.544;10.214;2023-05-20T01:11:05;100151.78;;;18.62;73.96
79678;BME280;69145;45.544;10.214;2023-05-20T01:13:42;100145.75;;;18.62;73.77
79678;BME280;69145;45.544;10.214;2023-05-20T01:16:10;100143.94;;;18.62;74.11
79678;BME280;69145;45.544;10.214;2023-05-20T01:18:37;100140.50;;;18.62;74.04
79678;BME280;69145;45.544;10.214;2023-05-20T01:21:04;100132.06;;;18.60;73.93
79678;BME280;69145;45.544;10.214;2023-05-20T01:23:40;100126.81;;;18.60;73.76
79678;BME280;69145;45.544;10.214;2023-05-20T01:26:07;100132.06;;;18.60;73.83
79678;BME280;69145;45.544;10.214;2023-05-20T01:28:34;100127.63;;;18.60;73.71
79678;BME280;69145;45.544;10.214;2023-05-20T01:31:02;100125.00;;;18.60;73.90
79678;BME280;69145;45.544;10.214;2023-05-20T01:33:30;100120.56;;;18.61;73.90
79678;BME280;69145;45.544;10.214;2023-05-20T01:35:58;100130.81;;;18.62;73.98
79678;BME280;69145;45.544;10.214;2023-05-20T01:38:25;100126.59;;;18.61;73.76
79678;BME280;69145;45.544;10.214;2023-05-20T01:40:52;100121.56;;;18.60;73.82
79678;BME280;69145;45.544;10.214;2023-05-20T01:43:20;100119.53;;;18.62;73.80
79678;BME280;69145;45.544;10.214;2023-05-20T01:45:45;100119.53;;;18.62;73.94
79678;BME280;69145;45.544;10.214;2023-05-20T01:48:11;100112.47;;;18.62;74.14
79678;BME280;69145;45.544;10.214;2023-05-20T01:50:37;100109.84;;;18.62;73.83
79678;BME280;69145;45.544;10.214;2023-05-20T01:53:03;100108.25;;;18.61;74.11
79678;BME280;69145;45.544;10.214;2023-05-20T01:55:28;100099.59;;;18.61;73.79
79678;BME280;69145;45.544;10.214;2023-05-20T01:57:54;100103.00;;;18.61;73.64
79678;BME280;69145;45.544;10.214;2023-05-20T02:00:19;100096.19;;;18.60;73.74
79678;BME280;69145;45.544;10.214;2023-05-20T02:02:45;100089.91;;;18.61;73.77
79678;BME280;69145;45.544;10.214;2023-05-20T02:05:10;100095.94;;;18.62;73.57
79678;BME280;69145;45.544;10.214;2023-05-20T02:07:35;100088.56;;;18.59;73.65
79678;BME280;69145;45.544;10.214;2023-05-20T02:10:01;100091.75;;;18.61;73.88
79678;BME280;69145;45.544;10.214;2023-05-20T02:12:26;100092.53;;;18.61;73.96
79678;BME280;69145;45.544;10.214;2023-05-20T02:14:51;100084.09;;;18.59;73.43
79678;BME280;69145;45.544;10.214;2023-05-20T02:17:17;100078.66;;;18.61;73.74
79678;BME280;69145;45.544;10.214;2023-05-20T02:19:43;100075.22;;;18.60;73.49
79678;BME280;69145;45.544;10.214;2023-05-20T02:22:10;100080.47;;;18.60;73.49
79678;BME280;69145;45.544;10.214;2023-05-20T02:24:35;100081.25;;;18.61;73.39
79678;BME280;69145;45.544;10.214;2023-05-20T02:27:01;100075.44;;;18.59;73.38
79678;BME280;69145;45.544;10.214;2023-05-20T02:29:27;100080.47;;;18.60;73.49
79678;BME280;69145;45.544;10.214;2023-05-20T02:31:52;100075.22;;;18.60;73.33
79678;BME280;69145;45.544;10.214;2023-05-20T02:34:19;100077.25;;;18.58;73.35
79678;BME280;69145;45.544;10.214;2023-05-20T02:36:44;100085.69;;;18.60;73.23
79678;BME280;69145;45.544;10.214;2023-05-20T02:39:10;100078.84;;;18.59;73.08
79678;BME280;69145;45.544;10.214;2023-05-20T02:41:36;100077.84;;;18.60;73.27
79678;BME280;69145;45.544;10.214;2023-05-20T02:44:01;100079.41;;;18.61;73.18
79678;BME280;69145;45.544;10.214;2023-05-20T02:46:27;100081.03;;;18.62;73.25
79678;BME280;69145;45.544;10.214;2023-05-20T02:48:52;100080.47;;;18.60;73.07
79678;BME280;69145;45.544;10.214;2023-05-20T02:51:17;100078.41;;;18.62;73.07
79678;BME280;69145;45.544;10.214;2023-05-20T02:53:43;100086.28;;;18.62;73.17
79678;BME280;69145;45.544;10.214;2023-05-20T02:56:08;100076.78;;;18.61;73.25
79678;BME280;69145;45.544;10.214;2023-05-20T02:58:34;100080.47;;;18.60;73.01
79678;BME280;69145;45.544;10.214;2023-05-20T03:01:00;100081.25;;;18.61;73.22
79678;BME280;69145;45.544;10.214;2023-05-20T03:03:25;100080.47;;;18.60;73.03
79678;BME280;69145;45.544;10.214;2023-05-20T03:05:54;100084.66;;;18.61;72.92
79678;BME280;69145;45.544;10.214;2023-05-20T03:08:21;100071.78;;;18.60;72.73
79678;BME280;69145;45.544;10.214;2023-05-20T03:10:46;100074.19;;;18.61;72.80
79678;BME280;69145;45.544;10.214;2023-05-20T03:13:12;100073.59;;;18.59;72.92
79678;BME280;69145;45.544;10.214;2023-05-20T03:15:41;100082.03;;;18.61;72.87
79678;BME280;69145;45.544;10.214;2023-05-20T03:18:09;100070.22;;;18.59;72.96
79678;BME280;69145;45.544;10.214;2023-05-20T03:20:35;100065.75;;;18.59;73.09
79678;BME280;69145;45.544;10.214;2023-05-20T03:23:03;100063.94;;;18.60;73.03
79678;BME280;69145;45.544;10.214;2023-05-20T03:25:28;100056.88;;;18.60;73.15
79678;BME280;69145;45.544;10.214;2023-05-20T03:27:54;100042.41;;;18.58;72.73
79678;BME280;69145;45.544;10.214;2023-05-20T03:30:19;100042.16;;;18.59;72.79
79678;BME280;69145;45.544;10.214;2023-05-20T03:32:45;100034.78;;;18.56;72.93
79678;BME280;69145;45.544;10.214;2023-05-20T03:35:10;100030.78;;;18.54;72.83
79678;BME280;69145;45.544;10.214;2023-05-20T03:37:36;100020.28;;;18.54;72.73
79678;BME280;69145;45.544;10.214;2023-05-20T03:40:02;100011.66;;;18.53;73.31
79678;BME280;69145;45.544;10.214;2023-05-20T03:42:31;100019.50;;;18.53;73.02
79678;BME280;69145;45.544;10.214;2023-05-20T03:44:59;100024.28;;;18.56;73.05
79678;BME280;69145;45.544;10.214;2023-05-20T03:47:25;100019.94;;;18.50;72.98
79678;BME280;69145;45.544;10.214;2023-05-20T03:49:51;100010.84;;;18.53;73.05
79678;BME280;69145;45.544;10.214;2023-05-20T03:52:16;100008.00;;;18.54;73.18
79678;BME280;69145;45.544;10.214;2023-05-20T03:54:42;100004.38;;;18.55;72.98
79678;BME280;69145;45.544;10.214;2023-05-20T03:57:07;100012.00;;;18.57;73.12
79678;BME280;69145;45.544;10.214;2023-05-20T03:59:35;100005.94;;;18.56;73.07
79678;BME280;69145;45.544;10.214;2023-05-20T04:02:01;100010.94;;;18.58;73.48
79678;BME280;69145;45.544;10.214;2023-05-20T04:04:26;99998.78;;;18.52;72.82
79678;BME280;69145;45.544;10.214;2023-05-20T04:06:52;100008.81;;;18.55;72.97
79678;BME280;69145;45.544;10.214;2023-05-20T04:09:18;100008.00;;;18.54;72.97
79678;BME280;69145;45.544;10.214;2023-05-20T04:11:44;99996.94;;;18.52;72.82
79678;BME280;69145;45.544;10.214;2023-05-20T04:14:09;99997.97;;;18.51;72.98
79678;BME280;69145;45.544;10.214;2023-05-20T04:16:35;100004.03;;;18.52;73.33
79678;BME280;69145;45.544;10.214;2023-05-20T04:19:25;100004.56;;;18.54;73.27
79678;BME280;69145;45.544;10.214;2023-05-20T04:22:12;100000.59;;;18.51;72.92
79678;BME280;69145;45.544;10.214;2023-05-20T04:24:43;100001.94;;;18.54;73.18
79678;BME280;69145;45.544;10.214;2023-05-20T04:32:40;100014.59;;;18.57;72.96
79678;BME280;69145;45.544;10.214;2023-05-20T04:35:40;100006.84;;;18.50;72.81
79678;BME280;69145;45.544;10.214;2023-05-20T04:38:07;100008.94;;;18.48;72.62
79678;BME280;69145;45.544;10.214;2023-05-20T04:40:35;100008.94;;;18.48;73.12
79678;BME280;69145;45.544;10.214;2023-05-20T04:43:08;100010.28;;;18.51;72.99
79678;BME280;69145;45.544;10.214;2023-05-20T04:45:37;100016.44;;;18.56;73.09
79678;BME280;69145;45.544;10.214;2023-05-20T04:48:02;100010.28;;;18.51;72.71
79678;BME280;69145;45.544;10.214;2023-05-20T04:50:43;100019.84;;;18.57;73.01
79678;BME280;69145;45.544;10.214;2023-05-20T04:53:59;100005.03;;;18.51;73.04
79678;BME280;69145;45.544;10.214;2023-05-20T04:56:52;100004.03;;;18.52;72.81
79678;BME280;69145;45.544;10.214;2023-05-20T04:59:49;100004.81;;;18.52;72.69
79678;BME280;69145;45.544;10.214;2023-05-20T05:02:28;99999.56;;;18.52;72.89
79678;BME280;69145;45.544;10.214;2023-05-20T05:08:15;99988.06;;;18.53;72.66
79678;BME280;69145;45.544;10.214;2023-05-20T05:10:44;99980.66;;;18.50;72.82
79678;BME280;69145;45.544;10.214;2023-05-20T05:13:40;99991.69;;;18.52;72.73
79678;BME280;69145;45.544;10.214;2023-05-20T05:16:09;99985.91;;;18.50;72.86
79678;BME280;69145;45.544;10.214;2023-05-20T05:18:48;99980.88;;;18.49;72.70
79678;BME280;69145;45.544;10.214;2023-05-20T05:24:16;99985.69;;;18.52;72.68
79678;BME280;69145;45.544;10.214;2023-05-20T05:29:41;99969.16;;;18.51;72.77
79678;BME280;69145;45.544;10.214;2023-05-20T05:35:21;99964.94;;;18.50;73.11
79678;BME280;69145;45.544;10.214;2023-05-20T05:40:47;99961.63;;;18.55;72.81
79678;BME280;69145;45.544;10.214;2023-05-20T05:43:19;99961.88;;;18.53;72.79
79678;BME280;69145;45.544;10.214;2023-05-20T05:46:01;99951.84;;;18.50;72.74
79678;BME280;69145;45.544;10.214;2023-05-20T05:48:48;99941.81;;;18.47;72.86
79678;BME280;69145;45.544;10.214;2023-05-20T05:51:17;99938.97;;;18.49;72.69
79678;BME280;69145;45.544;10.214;2023-05-20T05:53:43;99937.25;;;18.54;72.65
79678;BME280;69145;45.544;10.214;2023-05-20T05:56:08;99942.16;;;18.51;73.29
79678;BME280;69145;45.544;10.214;2023-05-20T05:58:34;99954.78;;;18.54;72.99
79678;BME280;69145;45.544;10.214;2023-05-20T06:00:59;99937.16;;;18.49;73.22
79678;BME280;69145;45.544;10.214;2023-05-20T06:03:25;99946.06;;;18.48;72.92
79678;BME280;69145;45.544;10.214;2023-05-20T06:05:51;99940.00;;;18.48;72.74
79678;BME280;69145;45.544;10.214;2023-05-20T06:08:25;99947.41;;;18.51;73.12
79678;BME280;69145;45.544;10.214;2023-05-20T06:11:04;99953.78;;;18.55;73.04
79678;BME280;69145;45.544;10.214;2023-05-20T06:13:31;99953.44;;;18.51;72.97
79678;BME280;69145;45.544;10.214;2023-05-20T06:15:57;99960.03;;;18.54;73.51
79678;BME280;69145;45.544;10.214;2023-05-20T06:18:25;99956.88;;;18.52;73.51
79678;BME280;69145;45.544;10.214;2023-05-20T06:21:14;99960.03;;;18.54;73.31
79678;BME280;69145;45.544;10.214;2023-05-20T06:23:42;99965.41;;;18.59;73.09
79678;BME280;69145;45.544;10.214;2023-05-20T06:26:17;99958.44;;;18.53;73.19
79678;BME280;69145;45.544;10.214;2023-05-20T06:28:42;99966.63;;;18.56;73.49
79678;BME280;69145;45.544;10.214;2023-05-20T06:31:09;99956.41;;;18.55;73.89
79678;BME280;69145;45.544;10.214;2023-05-20T06:33:37;99962.97;;;18.57;73.79
79678;BME280;69145;45.544;10.214;2023-05-20T06:36:03;99954.78;;;18.54;74.03
79678;BME280;69145;45.544;10.214;2023-05-20T06:38:42;99961.97;;;18.58;74.25
79678;BME280;69145;45.544;10.214;2023-05-20T06:41:11;99970.06;;;18.57;73.58
79678;BME280;69145;45.544;10.214;2023-05-20T06:43:38;99952.88;;;18.49;73.12
79678;BME280;69145;45.544;10.214;2023-05-20T06:46:05;99961.16;;;18.58;73.14
79678;BME280;69145;45.544;10.214;2023-05-20T06:48:30;99946.25;;;18.58;72.87
79678;BME280;69145;45.544;10.214;2023-05-20T06:50:55;99961.41;;;18.56;73.06
79678;BME280;69145;45.544;10.214;2023-05-20T06:53:21;99968.78;;;18.59;73.01
79678;BME280;69145;45.544;10.214;2023-05-20T06:55:46;99969.81;;;18.58;72.93
79678;BME280;69145;45.544;10.214;2023-05-20T06:58:12;99967.22;;;18.58;73.91
79678;BME280;69145;45.544;10.214;2023-05-20T07:00:37;99961.16;;;18.58;74.76
79678;BME280;69145;45.544;10.214;2023-05-20T07:03:03;99973.25;;;18.59;73.88
79678;BME280;69145;45.544;10.214;2023-05-20T07:05:29;99967.22;;;18.58;73.47
79678;BME280;69145;45.544;10.214;2023-05-20T07:07:55;99969.81;;;18.58;73.78
79678;BME280;69145;45.544;10.214;2023-05-20T07:10:20;99973.25;;;18.59;74.00
79678;BME280;69145;45.544;10.214;2023-05-20T07:12:46;99969.59;;;18.60;75.17
79678;BME280;69145;45.544;10.214;2023-05-20T07:15:11;99963.78;;;18.58;73.95
79678;BME280;69145;45.544;10.214;2023-05-20T07:17:36;99968.78;;;18.59;73.85
79678;BME280;69145;45.544;10.214;2023-05-20T07:20:02;99968.78;;;18.59;74.66
79678;BME280;69145;45.544;10.214;2023-05-20T07:22:28;99971.41;;;18.59;73.92
79678;BME280;69145;45.544;10.214;2023-05-20T07:24:53;99969.81;;;18.58;73.98
79678;BME280;69145;45.544;10.214;2023-05-20T07:27:19;99970.63;;;18.59;74.30
79678;BME280;69145;45.544;10.214;2023-05-20T07:29:44;99966.16;;;18.59;74.83
79678;BME280;69145;45.544;10.214;2023-05-20T07:32:17;99957.53;;;18.59;74.95
79678;BME280;69145;45.544;10.214;2023-05-20T07:34:43;99958.53;;;18.58;74.34
79678;BME280;69145;45.544;10.214;2023-05-20T07:37:08;99952.97;;;18.54;73.23
79678;BME280;69145;45.544;10.214;2023-05-20T07:39:34;99958.78;;;18.56;74.34
79678;BME280;69145;45.544;10.214;2023-05-20T07:41:59;99961.16;;;18.58;75.23
79678;BME280;69145;45.544;10.214;2023-05-20T07:44:25;99957.19;;;18.55;73.83
79678;BME280;69145;45.544;10.214;2023-05-20T07:46:50;99958.53;;;18.58;74.78
79678;BME280;69145;45.544;10.214;2023-05-20T07:49:16;99963.53;;;18.59;74.98
79678;BME280;69145;45.544;10.214;2023-05-20T07:51:41;99960.16;;;18.59;74.90
79678;BME280;69145;45.544;10.214;2023-05-20T07:54:07;99960.94;;;18.59;74.57
79678;BME280;69145;45.544;10.214;2023-05-20T07:56:32;99960.16;;;18.59;74.14
79678;BME280;69145;45.544;10.214;2023-05-20T07:58:58;99964.59;;;18.58;74.07
79678;BME280;69145;45.544;10.214;2023-05-20T08:01:25;99965.16;;;18.60;74.73
79678;BME280;69145;45.544;10.214;2023-05-20T08:04:01;99965.16;;;18.60;74.78
79678;BME280;69145;45.544;10.214;2023-05-20T08:06:26;99959.91;;;18.60;74.31
79678;BME280;69145;45.544;10.214;2023-05-20T08:08:51;99957.97;;;18.56;74.55
79678;BME280;69145;45.544;10.214;2023-05-20T08:11:21;99961.19;;;18.46;74.61
79678;BME280;69145;45.544;10.214;2023-05-20T08:13:47;99971.44;;;18.48;74.52
79678;BME280;69145;45.544;10.214;2023-05-20T08:16:12;99957.06;;;18.50;74.78
79678;BME280;69145;45.544;10.214;2023-05-20T08:18:38;99964.50;;;18.53;74.72
79678;BME280;69145;45.544;10.214;2023-05-20T08:21:06;99958.78;;;18.56;74.49
79678;BME280;69145;45.544;10.214;2023-05-20T08:23:33;99957.19;;;18.55;75.03
79678;BME280;69145;45.544;10.214;2023-05-20T08:25:58;99950.91;;;18.56;75.13
79678;BME280;69145;45.544;10.214;2023-05-20T08:28:29;99954.09;;;18.58;74.99
79678;BME280;69145;45.544;10.214;2023-05-20T08:30:55;99954.34;;;18.57;75.50
79678;BME280;69145;45.544;10.214;2023-05-20T08:33:22;99959.59;;;18.57;75.08
79678;BME280;69145;45.544;10.214;2023-05-20T08:35:47;99957.97;;;18.56;75.74
79678;BME280;69145;45.544;10.214;2023-05-20T08:38:13;99959.34;;;18.58;76.03
79678;BME280;69145;45.544;10.214;2023-05-20T08:40:39;99956.97;;;18.57;75.37
79678;BME280;69145;45.544;10.214;2023-05-20T08:43:04;99964.34;;;18.60;76.35
79678;BME280;69145;45.544;10.214;2023-05-20T08:45:31;99963.53;;;18.59;75.84
79678;BME280;69145;45.544;10.214;2023-05-20T08:47:57;99959.91;;;18.60;76.69
79678;BME280;69145;45.544;10.214;2023-05-20T08:50:22;99971.19;;;18.61;77.00
79678;BME280;69145;45.544;10.214;2023-05-20T08:52:48;99965.06;;;18.55;75.61
79678;BME280;69145;45.544;10.214;2023-05-20T08:55:17;99964.59;;;18.58;76.24
79678;BME280;69145;45.544;10.214;2023-05-20T08:57:49;99966.16;;;18.59;76.44
79678;BME280;69145;45.544;10.214;2023-05-20T09:00:14;99963.34;;;18.61;77.03
79678;BME280;69145;45.544;10.214;2023-05-20T09:02:42;99970.31;;;18.55;75.18
79678;BME280;69145;45.544;10.214;2023-05-20T09:05:09;99980.88;;;18.60;76.84
79678;BME280;69145;45.544;10.214;2023-05-20T09:07:35;99980.88;;;18.60;76.69
79678;BME280;69145;45.544;10.214;2023-05-20T09:10:01;99989.75;;;18.59;76.84
79678;BME280;69145;45.544;10.214;2023-05-20T09:12:26;99995.00;;;18.59;77.42
79678;BME280;69145;45.544;10.214;2023-05-20T09:14:52;99992.16;;;18.61;77.35
79678;BME280;69145;45.544;10.214;2023-05-20T09:17:17;100001.84;;;18.60;77.73
79678;BME280;69145;45.544;10.214;2023-05-20T09:19:43;100008.91;;;18.60;77.31
79678;BME280;69145;45.544;10.214;2023-05-20T09:22:08;100006.50;;;18.58;75.42
79678;BME280;69145;45.544;10.214;2023-05-20T09:24:34;100002.66;;;18.61;77.24
79678;BME280;69145;45.544;10.214;2023-05-20T09:27:01;100004.47;;;18.60;78.30
79678;BME280;69145;45.544;10.214;2023-05-20T09:29:27;100003.91;;;18.58;75.13
79678;BME280;69145;45.544;10.214;2023-05-20T09:31:54;100014.38;;;18.58;76.25
79678;BME280;69145;45.544;10.214;2023-05-20T09:34:20;100012.31;;;18.60;77.73
79678;BME280;69145;45.544;10.214;2023-05-20T09:36:49;100011.19;;;18.56;75.33
79678;BME280;69145;45.544;10.214;2023-05-20T09:39:16;100003.31;;;18.56;75.66
79678;BME280;69145;45.544;10.214;2023-05-20T09:42:07;100005.47;;;18.59;76.27
79678;BME280;69145;45.544;10.214;2023-05-20T09:44:36;100011.28;;;18.61;78.57
79678;BME280;69145;45.544;10.214;2023-05-20T09:47:04;100007.88;;;18.61;78.28
79678;BME280;69145;45.544;10.214;2023-05-20T09:49:31;100007.66;;;18.62;78.12
79678;BME280;69145;45.544;10.214;2023-05-20T09:52:01;100004.22;;;18.62;78.33
79678;BME280;69145;45.544;10.214;2023-05-20T09:54:27;100008.66;;;18.61;77.66
79678;BME280;69145;45.544;10.214;2023-05-20T09:56:53;100005.81;;;18.63;79.11
79678;BME280;69145;45.544;10.214;2023-05-20T09:59:21;100012.91;;;18.62;78.38
79678;BME280;69145;45.544;10.214;2023-05-20T10:01:46;100008.66;;;18.61;79.13
79678;BME280;69145;45.544;10.214;2023-05-20T10:04:13;100008.66;;;18.61;78.59
79678;BME280;69145;45.544;10.214;2023-05-20T10:09:27;100002.41;;;18.62;78.48
79678;BME280;69145;45.544;10.214;2023-05-20T10:12:26;100011.06;;;18.63;78.63
79678;BME280;69145;45.544;10.214;2023-05-20T10:17:49;100004.00;;;18.63;77.99
79678;BME280;69145;45.544;10.214;2023-05-20T10:20:17;99995.00;;;18.59;76.42
79678;BME280;69145;45.544;10.214;2023-05-20T10:22:42;99995.00;;;18.59;76.94
79678;BME280;69145;45.544;10.214;2023-05-20T10:25:12;99994.78;;;18.61;77.35
79678;BME280;69145;45.544;10.214;2023-05-20T10:27:48;99996.59;;;18.60;78.35
79678;BME280;69145;45.544;10.214;2023-05-20T10:30:15;99993.75;;;18.62;78.40
79678;BME280;69145;45.544;10.214;2023-05-20T10:32:48;99986.69;;;18.62;79.56
79678;BME280;69145;45.544;10.214;2023-05-20T10:35:21;99985.66;;;18.63;79.55
79678;BME280;69145;45.544;10.214;2023-05-20T10:37:47;99976.22;;;18.62;80.20
79678;BME280;69145;45.544;10.214;2023-05-20T10:40:13;99970.97;;;18.62;80.27
79678;BME280;69145;45.544;10.214;2023-05-20T10:42:40;99972.44;;;18.58;80.49
79678;BME280;69145;45.544;10.214;2023-05-20T10:45:06;99978.81;;;18.62;80.49
79678;BME280;69145;45.544;10.214;2023-05-20T10:47:33;99974.38;;;18.63;80.38
79678;BME280;69145;45.544;10.214;2023-05-20T10:49:58;99965.72;;;18.62;79.94
79678;BME280;69145;45.544;10.214;2023-05-20T10:52:26;99966.50;;;18.63;80.36
79678;BME280;69145;45.544;10.214;2023-05-20T10:54:55;99960.47;;;18.62;80.28
79678;BME280;69145;45.544;10.214;2023-05-20T10:57:21;99957.06;;;18.62;80.82
79678;BME280;69145;45.544;10.214;2023-05-20T10:59:48;99952.63;;;18.62;80.82
79678;BME280;69145;45.544;10.214;2023-05-20T11:02:15;99948.97;;;18.63;81.04
79678;BME280;69145;45.544;10.214;2023-05-20T11:04:44;99931.66;;;18.62;80.64
79678;BME280;69145;45.544;10.214;2023-05-20T11:07:11;99936.34;;;18.60;81.12
79678;BME280;69145;45.544;10.214;2023-05-20T11:09:36;99942.59;;;18.59;81.07
79678;BME280;69145;45.544;10.214;2023-05-20T11:12:02;99938.72;;;18.62;81.22
79678;BME280;69145;45.544;10.214;2023-05-20T11:14:28;99937.91;;;18.61;81.51
79678;BME280;69145;45.544;10.214;2023-05-20T11:16:58;99941.09;;;18.63;80.96
79678;BME280;69145;45.544;10.214;2023-05-20T11:19:24;99939.97;;;18.59;81.30
79678;BME280;69145;45.544;10.214;2023-05-20T11:21:49;99945.78;;;18.61;80.92
79678;BME280;69145;45.544;10.214;2023-05-20T11:24:25;99939.53;;;18.62;80.95
79678;BME280;69145;45.544;10.214;2023-05-20T11:26:52;99939.97;;;18.59;80.87
79678;BME280;69145;45.544;10.214;2023-05-20T11:29:18;99940.53;;;18.61;80.67
79678;BME280;69145;45.544;10.214;2023-05-20T11:31:47;99931.91;;;18.61;80.89
79678;BME280;69145;45.544;10.214;2023-05-20T11:34:31;99936.34;;;18.60;81.17
79678;BME280;69145;45.544;10.214;2023-05-20T11:36:59;99930.75;;;18.57;81.01
79678;BME280;69145;45.544;10.214;2023-05-20T11:39:25;99931.44;;;18.52;81.26
79678;BME280;69145;45.544;10.214;2023-05-20T11:42:19;99923.34;;;18.54;81.13
79678;BME280;69145;45.544;10.214;2023-05-20T11:45:13;99917.41;;;18.58;81.42
79678;BME280;69145;45.544;10.214;2023-05-20T11:48:10;99904.00;;;18.55;80.56
79678;BME280;69145;45.544;10.214;2023-05-20T11:54:16;99914.81;;;18.58;80.76
79678;BME280;69145;45.544;10.214;2023-05-20T11:56:42;99920.38;;;18.62;80.84
79678;BME280;69145;45.544;10.214;2023-05-20T11:59:09;99918.00;;;18.60;81.20
79678;BME280;69145;45.544;10.214;2023-05-20T12:01:37;99931.66;;;18.62;80.87
79678;BME280;69145;45.544;10.214;2023-05-20T12:04:04;99929.28;;;18.61;80.21
79678;BME280;69145;45.544;10.214;2023-05-20T12:06:30;99925.63;;;18.62;80.05
79678;BME280;69145;45.544;10.214;2023-05-20T12:08:59;99919.34;;;18.63;79.77
79678;BME280;69145;45.544;10.214;2023-05-20T12:11:27;99910.69;;;18.62;79.79
79678;BME280;69145;45.544;10.214;2023-05-20T12:13:52;99905.47;;;18.62;80.95
79678;BME280;69145;45.544;10.214;2023-05-20T12:16:17;99893.38;;;18.61;81.10
79678;BME280;69145;45.544;10.214;2023-05-20T12:18:43;99891.31;;;18.63;80.74
79678;BME280;69145;45.544;10.214;2023-05-20T12:21:08;99892.34;;;18.62;80.98
79678;BME280;69145;45.544;10.214;2023-05-20T12:23:33;99897.84;;;18.61;80.97
79678;BME280;69145;45.544;10.214;2023-05-20T12:25:59;99901.78;;;18.63;80.48
79678;BME280;69145;45.544;10.214;2023-05-20T12:28:25;99917.50;;;18.63;81.19
79678;BME280;69145;45.544;10.214;2023-05-20T12:30:50;99914.91;;;18.63;80.57
79678;BME280;69145;45.544;10.214;2023-05-20T12:33:16;99913.06;;;18.64;79.45
79678;BME280;69145;45.544;10.214;2023-05-20T12:35:51;99911.47;;;18.63;80.29
79678;BME280;69145;45.544;10.214;2023-05-20T12:38:17;99911.47;;;18.63;80.15
79678;BME280;69145;45.544;10.214;2023-05-20T12:40:42;99913.06;;;18.64;80.44
79678;BME280;69145;45.544;10.214;2023-05-20T12:43:08;99905.47;;;18.62;80.17
79678;BME280;69145;45.544;10.214;2023-05-20T12:45:33;99915.69;;;18.64;80.19
79678;BME280;69145;45.544;10.214;2023-05-20T12:47:59;99914.91;;;18.63;81.12
79678;BME280;69145;45.544;10.214;2023-05-20T12:50:26;99916.50;;;18.64;80.54
79678;BME280;69145;45.544;10.214;2023-05-20T12:52:51;99917.28;;;18.65;80.25
79678;BME280;69145;45.544;10.214;2023-05-20T12:55:17;99925.13;;;18.65;80.57
79678;BME280;69145;45.544;10.214;2023-05-20T12:57:43;99920.38;;;18.62;80.96
79678;BME280;69145;45.544;10.214;2023-05-20T13:00:10;99928.00;;;18.63;80.46
79678;BME280;69145;45.544;10.214;2023-05-20T13:02:36;99940.09;;;18.64;80.36
79678;BME280;69145;45.544;10.214;2023-05-20T13:05:02;99942.16;;;18.62;81.07
79678;BME280;69145;45.544;10.214;2023-05-20T13:07:27;99934.50;;;18.61;81.05
79678;BME280;69145;45.544;10.214;2023-05-20T13:09:53;99932.44;;;18.63;80.70
79678;BME280;69145;45.544;10.214;2023-05-20T13:12:18;99935.84;;;18.63;80.94
79678;BME280;69145;45.544;10.214;2023-05-20T13:14:43;99947.38;;;18.62;81.28
79678;BME280;69145;45.544;10.214;2023-05-20T13:17:10;99950.25;;;18.61;80.86
79678;BME280;69145;45.544;10.214;2023-05-20T13:19:36;99941.34;;;18.62;81.25
79678;BME280;69145;45.544;10.214;2023-05-20T13:22:02;99936.09;;;18.62;81.11
79678;BME280;69145;45.544;10.214;2023-05-20T13:24:27;99931.91;;;18.61;82.02